createdAt,value
2023-03-06T00:01:33.543Z,0.34
2023-03-06T00:04:08.558Z,0.41
2023-03-06T00:06:41.492Z,0.43
2023-03-06T00:09:14.636Z,0.41
2023-03-06T00:11:47.752Z,0.38
2023-03-06T00:14:21.907Z,0.42
2023-03-06T00:16:56.020Z,0.40
2023-03-06T00:19:29.185Z,0.43
2023-03-06T00:22:03.324Z,0.38
2023-03-06T00:24:35.758Z,0.44
2023-03-06T00:27:08.190Z,0.43
2023-03-06T00:29:42.841Z,0.41
2023-03-06T00:32:16.117Z,0.42
2023-03-06T00:34:49.407Z,0.40
2023-03-06T00:37:24.577Z,0.40
2023-03-06T00:39:57.066Z,0.40
2023-03-06T00:42:30.239Z,0.41
2023-03-06T00:45:04.976Z,0.40
2023-03-06T00:47:37.836Z,0.38
2023-03-06T00:50:11.580Z,0.37
2023-03-06T00:52:44.677Z,0.35
2023-03-06T00:55:17.282Z,0.38
2023-03-06T00:57:50.167Z,0.33
2023-03-06T01:00:24.136Z,0.39
2023-03-06T01:02:57.357Z,0.38
2023-03-06T01:05:31.356Z,0.35
2023-03-06T01:08:06.454Z,0.34
2023-03-06T01:10:40.548Z,0.29
2023-03-06T01:13:14.669Z,0.31
2023-03-06T01:15:48.781Z,0.31
2023-03-06T01:18:21.892Z,0.30
2023-03-06T01:20:54.324Z,0.28
2023-03-06T01:23:27.030Z,0.23
2023-03-06T01:26:01.437Z,0.25
2023-03-06T01:28:35.601Z,0.26
2023-03-06T01:31:10.432Z,0.26
2023-03-06T01:33:43.404Z,0.28
2023-03-06T01:36:16.317Z,0.29
2023-03-06T01:38:49.355Z,0.29
2023-03-06T01:41:22.368Z,0.29
2023-03-06T01:43:55.158Z,0.22
2023-03-06T01:46:42.102Z,0.26
2023-03-06T01:49:19.143Z,0.24
2023-03-06T01:51:54.754Z,0.18
2023-03-06T01:54:31.599Z,0.18
2023-03-06T01:57:09.706Z,0.21
2023-03-06T01:59:43.609Z,0.20
2023-03-06T02:02:17.501Z,0.22
2023-03-06T02:04:50.379Z,0.22
2023-03-06T02:07:25.109Z,0.08
2023-03-06T02:09:58.948Z,0.24
2023-03-06T02:12:31.599Z,0.25
2023-03-06T02:15:05.234Z,0.23
2023-03-06T02:17:41.356Z,0.25
2023-03-06T02:20:19.840Z,0.23
2023-03-06T02:23:00.359Z,0.23
2023-03-06T02:25:38.577Z,0.19
2023-03-06T02:28:13.823Z,0.20
2023-03-06T02:30:49.999Z,0.17
2023-03-06T02:33:25.334Z,0.15
2023-03-06T02:36:00.115Z,0.13
2023-03-06T02:38:37.278Z,0.13
2023-03-06T02:41:12.325Z,0.11
2023-03-06T02:43:47.808Z,0.11
2023-03-06T02:46:20.592Z,0.10
2023-03-06T02:48:53.731Z,0.10
2023-03-06T02:51:27.700Z,0.07
2023-03-06T02:54:00.674Z,0.09
2023-03-06T02:56:34.458Z,0.07
2023-03-06T02:59:08.477Z,0.08
2023-03-06T03:01:40.893Z,0.08
2023-03-06T03:04:14.256Z,0.08
2023-03-06T03:06:47.076Z,0.07
2023-03-06T03:09:20.631Z,0.08
2023-03-06T03:11:54.578Z,0.08
2023-03-06T03:14:27.723Z,0.06
2023-03-06T03:17:00.712Z,0.00
2023-03-06T03:19:33.790Z,-0.04
2023-03-06T03:22:06.843Z,-0.06
2023-03-06T03:24:40.513Z,-0.11
2023-03-06T03:27:14.606Z,-0.14
2023-03-06T03:29:48.045Z,-0.16
2023-03-06T03:32:21.038Z,-0.20
2023-03-06T03:34:56.185Z,-0.18
2023-03-06T03:37:30.765Z,-0.20
2023-03-06T03:40:07.089Z,-0.20
2023-03-06T03:42:41.208Z,-0.20
2023-03-06T03:45:15.509Z,-0.20
2023-03-06T03:47:48.592Z,-0.29
2023-03-06T03:50:22.670Z,-0.26
2023-03-06T03:52:55.613Z,-0.26
2023-03-06T03:55:29.433Z,-0.24
2023-03-06T03:58:03.758Z,-0.24
2023-03-06T04:00:36.552Z,-0.28
2023-03-06T04:03:16.414Z,-0.24
2023-03-06T04:05:54.479Z,-0.27
2023-03-06T04:08:27.907Z,-0.22
2023-03-06T04:11:00.826Z,-0.31
2023-03-06T04:13:36.115Z,-0.22
2023-03-06T04:16:09.877Z,-0.24
2023-03-06T04:18:44.666Z,-0.27
2023-03-06T04:21:17.153Z,-0.33
2023-03-06T04:23:49.798Z,-0.42
2023-03-06T04:26:22.550Z,-0.43
2023-03-06T04:28:56.458Z,-0.49
2023-03-06T04:31:30.346Z,-0.58
2023-03-06T04:34:02.928Z,-0.55
2023-03-06T04:36:36.196Z,-0.59
2023-03-06T04:39:16.062Z,-0.61
2023-03-06T04:41:48.995Z,-0.71
2023-03-06T04:44:25.752Z,-0.64
2023-03-06T04:46:58.798Z,-0.59
2023-03-06T04:49:31.625Z,-0.58
2023-03-06T04:52:04.654Z,-0.58
2023-03-06T04:54:37.430Z,-0.60
2023-03-06T04:57:10.623Z,-0.56
2023-03-06T04:59:45.085Z,-0.56
2023-03-06T05:02:17.809Z,-0.53
2023-03-06T05:04:50.912Z,-0.51
2023-03-06T05:07:23.734Z,-0.49
2023-03-06T05:09:56.372Z,-0.53
2023-03-06T05:12:29.402Z,-0.43
2023-03-06T05:15:04.002Z,-0.43
2023-03-06T05:17:37.853Z,-0.43
2023-03-06T05:20:13.567Z,-0.44
2023-03-06T05:22:46.642Z,-0.38
2023-03-06T05:25:19.494Z,-0.43
2023-03-06T05:27:51.865Z,-0.33
2023-03-06T05:30:25.859Z,-0.32
2023-03-06T05:32:59.142Z,-0.32
2023-03-06T05:35:32.148Z,-0.30
2023-03-06T05:38:04.920Z,-0.29
2023-03-06T05:40:40.508Z,-0.28
2023-03-06T05:43:13.100Z,-0.27
2023-03-06T05:45:47.793Z,-0.20
2023-03-06T05:48:20.303Z,-0.17
2023-03-06T05:50:55.967Z,-0.12
2023-03-06T05:53:29.503Z,-0.09
2023-03-06T05:56:04.790Z,-0.05
2023-03-06T05:58:38.176Z,0.00
2023-03-06T06:01:14.148Z,-0.01
2023-03-06T06:03:47.713Z,0.04
2023-03-06T06:06:20.499Z,0.07
2023-03-06T06:08:53.567Z,0.09
2023-03-06T06:11:26.286Z,0.12
2023-03-06T06:13:59.137Z,0.16
2023-03-06T06:16:33.527Z,0.18
2023-03-06T06:19:06.306Z,0.21
2023-03-06T06:21:38.759Z,0.28
2023-03-06T06:24:11.707Z,0.36
2023-03-06T06:26:44.913Z,0.41
2023-03-06T06:29:18.609Z,0.45
2023-03-06T06:31:53.342Z,0.48
2023-03-06T06:34:26.896Z,0.44
2023-03-06T06:36:59.387Z,0.42
2023-03-06T06:39:32.574Z,0.41
2023-03-06T06:42:27.998Z,0.39
2023-03-06T06:44:58.541Z,0.38
2023-03-06T06:47:34.416Z,0.38
2023-03-06T06:50:11.852Z,0.40
2023-03-06T06:52:44.637Z,0.42
2023-03-06T06:55:17.436Z,0.36
2023-03-06T06:57:49.978Z,0.40
2023-03-06T07:00:23.617Z,0.54
2023-03-06T07:02:57.890Z,0.56
2023-03-06T07:05:30.649Z,0.67
2023-03-06T07:08:03.071Z,0.69
2023-03-06T07:10:36.775Z,0.82
2023-03-06T07:13:09.536Z,0.90
2023-03-06T07:15:42.416Z,1.02
2023-03-06T07:18:16.899Z,1.05
2023-03-06T07:20:49.312Z,1.18
2023-03-06T07:23:22.572Z,1.22
2023-03-06T07:25:55.538Z,1.24
2023-03-06T07:28:28.403Z,1.30
2023-03-06T07:31:01.194Z,1.27
2023-03-06T07:33:35.150Z,1.45
2023-03-06T07:36:12.721Z,1.47
2023-03-06T07:38:45.637Z,1.53
2023-03-06T07:41:22.362Z,1.51
2023-03-06T07:43:55.635Z,1.48
2023-03-06T07:46:28.156Z,1.56
2023-03-06T07:49:02.704Z,1.61
2023-03-06T07:51:35.140Z,1.56
2023-03-06T07:54:08.280Z,1.70
2023-03-06T07:56:40.685Z,1.75
2023-03-06T07:59:13.375Z,1.75
2023-03-06T08:01:45.865Z,1.65
2023-03-06T08:04:21.220Z,1.68
2023-03-06T08:06:57.550Z,1.63
2023-03-06T08:09:31.983Z,1.57
2023-03-06T08:12:04.444Z,1.54
2023-03-06T08:14:37.179Z,1.53
2023-03-06T08:17:10.158Z,1.55
2023-03-06T08:19:44.341Z,1.56
2023-03-06T08:22:17.060Z,1.56
2023-03-06T08:24:49.850Z,1.53
2023-03-06T08:27:22.847Z,1.54
2023-03-06T08:29:55.315Z,1.57
2023-03-06T08:32:28.434Z,1.62
2023-03-06T08:35:03.961Z,1.68
2023-03-06T08:37:37.417Z,1.78
2023-03-06T08:40:11.269Z,1.82
2023-03-06T08:42:44.566Z,1.81
2023-03-06T08:45:17.148Z,1.79
2023-03-06T08:47:50.008Z,1.77
2023-03-06T08:50:24.220Z,1.78
2023-03-06T08:52:56.946Z,1.77
2023-03-06T08:55:30.268Z,1.71
2023-03-06T08:58:04.707Z,1.69
2023-03-06T09:00:37.820Z,1.62
2023-03-06T09:03:10.662Z,1.55
2023-03-06T09:05:44.853Z,1.47
2023-03-06T09:08:18.275Z,1.45
2023-03-06T09:10:50.855Z,1.43
2023-03-06T09:13:23.315Z,1.43
2023-03-06T09:15:55.949Z,1.46
2023-03-06T09:18:29.931Z,1.46
2023-03-06T09:21:04.569Z,1.47
2023-03-06T09:23:39.968Z,1.51
2023-03-06T09:26:13.157Z,1.54
2023-03-06T09:28:46.101Z,1.54
2023-03-06T09:31:20.545Z,1.57
2023-03-06T09:33:52.973Z,1.60
2023-03-06T09:36:27.204Z,1.63
2023-03-06T09:39:00.174Z,1.68
2023-03-06T09:41:35.986Z,1.82
2023-03-06T09:44:15.357Z,1.90
2023-03-06T09:47:03.282Z,2.00
2023-03-06T09:49:48.330Z,2.13
2023-03-06T09:52:34.076Z,2.25
2023-03-06T09:55:12.650Z,2.36
2023-03-06T09:57:55.234Z,2.39
2023-03-06T10:00:31.533Z,2.41
2023-03-06T10:03:19.128Z,2.41
2023-03-06T10:05:57.698Z,2.39
2023-03-06T10:08:41.567Z,2.39
2023-03-06T10:11:18.473Z,2.46
2023-03-06T10:13:59.367Z,2.46
2023-03-06T10:16:33.432Z,2.42
2023-03-06T10:19:12.887Z,2.33
2023-03-06T10:21:54.687Z,2.25
2023-03-06T10:24:48.045Z,2.18
2023-03-06T10:27:38.997Z,2.15
2023-03-06T10:30:24.103Z,2.03
2023-03-06T10:32:59.224Z,2.13
2023-03-06T10:35:45.899Z,2.16
2023-03-06T10:38:21.788Z,2.16
2023-03-06T10:41:09.239Z,2.18
2023-03-06T10:43:43.990Z,2.21
2023-03-06T10:46:28.169Z,2.26
2023-03-06T10:49:02.029Z,2.27
2023-03-06T10:51:35.759Z,2.31
2023-03-06T10:54:20.119Z,2.36
2023-03-06T10:56:54.665Z,2.36
2023-03-06T10:59:30.937Z,2.26
2023-03-06T11:02:24.671Z,2.29
2023-03-06T11:04:59.712Z,2.27
2023-03-06T11:07:33.345Z,2.25
2023-03-06T11:10:18.141Z,2.22
2023-03-06T11:12:59.928Z,2.19
2023-03-06T11:15:32.635Z,2.17
2023-03-06T11:18:40.320Z,2.07
2023-03-06T11:21:27.098Z,2.09
2023-03-06T11:24:05.983Z,1.90
2023-03-06T11:26:43.963Z,2.13
2023-03-06T11:29:38.926Z,2.18
2023-03-06T11:32:18.121Z,2.24
2023-03-06T11:34:54.867Z,2.25
2023-03-06T11:37:39.431Z,2.30
2023-03-06T11:40:18.763Z,2.24
2023-03-06T11:42:59.801Z,2.23
2023-03-06T11:45:42.643Z,2.27
2023-03-06T11:48:25.320Z,2.24
2023-03-06T11:51:06.289Z,2.21
2023-03-06T11:53:40.674Z,2.17
2023-03-06T11:56:31.970Z,2.12
2023-03-06T11:59:27.616Z,2.09
2023-03-06T12:02:13.218Z,2.07
2023-03-06T12:05:01.561Z,2.06
2023-03-06T12:07:44.863Z,2.08
2023-03-06T12:10:20.839Z,2.09
2023-03-06T12:13:16.948Z,2.13
2023-03-06T12:16:12.842Z,2.20
2023-03-06T12:18:57.713Z,2.17
2023-03-06T12:21:39.059Z,2.24
2023-03-06T12:24:28.700Z,2.29
2023-03-06T12:27:16.851Z,2.24
2023-03-06T12:30:17.843Z,2.29
2023-03-06T12:32:57.694Z,2.30
2023-03-06T12:35:51.041Z,2.28
2023-03-06T12:38:55.856Z,2.33
2023-03-06T12:41:43.027Z,2.35
2023-03-06T12:44:39.937Z,2.39
2023-03-06T12:47:17.661Z,2.40
2023-03-06T12:49:55.282Z,2.43
2023-03-06T12:52:31.894Z,2.40
2023-03-06T12:55:08.085Z,2.37
2023-03-06T12:57:41.850Z,2.32
2023-03-06T13:00:49.889Z,2.31
2023-03-06T13:03:30.522Z,2.27
2023-03-06T13:06:20.738Z,2.23
2023-03-06T13:09:11.706Z,2.08
2023-03-06T13:12:23.450Z,2.13
2023-03-06T13:14:59.102Z,2.08
2023-03-06T13:17:37.385Z,2.02
2023-03-06T13:20:35.111Z,1.92
2023-03-06T13:23:48.500Z,1.77
2023-03-06T13:27:04.152Z,1.63
2023-03-06T13:30:06.462Z,1.56
2023-03-06T13:32:39.812Z,1.50
2023-03-06T13:35:52.684Z,1.47
2023-03-06T13:38:37.243Z,1.46
2023-03-06T13:41:37.936Z,1.45
2023-03-06T13:44:47.500Z,1.44
2023-03-06T13:50:41.582Z,1.44
2023-03-06T13:53:44.937Z,1.48
2023-03-06T13:56:58.481Z,1.46
2023-03-06T14:00:09.831Z,1.52
2023-03-06T14:03:23.944Z,1.51
2023-03-06T14:05:59.444Z,1.48
2023-03-06T14:08:33.322Z,1.48
2023-03-06T14:11:17.722Z,1.47
2023-03-06T14:13:52.843Z,1.38
2023-03-06T14:16:32.728Z,1.45
2023-03-06T14:19:16.918Z,1.44
2023-03-06T14:21:57.300Z,1.40
2023-03-06T14:24:34.710Z,1.43
2023-03-06T14:27:09.555Z,1.42
2023-03-06T14:29:41.958Z,1.32
2023-03-06T14:32:18.109Z,1.37
2023-03-06T14:34:50.896Z,1.33
2023-03-06T14:37:25.368Z,1.17
2023-03-06T14:39:58.872Z,1.30
2023-03-06T14:42:31.512Z,1.29
2023-03-06T14:45:16.557Z,1.29
2023-03-06T14:47:52.243Z,1.29
2023-03-06T14:50:26.326Z,1.14
2023-03-06T14:53:04.512Z,1.11
2023-03-06T14:55:37.540Z,1.25
2023-03-06T14:58:14.915Z,1.23
2023-03-06T15:00:51.780Z,1.21
2023-03-06T15:03:33.805Z,1.15
2023-03-06T15:06:09.249Z,1.17
2023-03-06T15:08:45.427Z,1.10
2023-03-06T15:11:18.275Z,1.13
2023-03-06T15:14:01.615Z,1.09
2023-03-06T15:16:34.589Z,1.04
2023-03-06T15:19:18.858Z,0.97
2023-03-06T15:21:52.899Z,0.99
2023-03-06T15:24:35.195Z,0.79
2023-03-06T15:27:19.227Z,0.85
2023-03-06T15:29:51.782Z,0.92
2023-03-06T15:32:32.629Z,0.74
2023-03-06T15:35:28.580Z,0.85
2023-03-06T15:38:02.846Z,0.81
2023-03-06T15:40:37.563Z,0.73
2023-03-06T15:43:14.885Z,0.73
2023-03-06T15:45:48.057Z,0.65
2023-03-06T15:48:21.131Z,0.67
2023-03-06T15:50:53.616Z,0.65
2023-03-06T15:53:26.288Z,0.62
2023-03-06T15:56:01.785Z,0.60
2023-03-06T15:58:35.000Z,0.59
2023-03-06T16:01:08.345Z,0.46
2023-03-06T16:03:41.505Z,0.58
2023-03-06T16:06:17.446Z,0.53
2023-03-06T16:08:50.957Z,0.49
2023-03-06T16:11:35.434Z,0.51
2023-03-06T16:14:21.576Z,0.56
2023-03-06T16:16:56.677Z,0.56
2023-03-06T16:19:29.770Z,0.54
2023-03-06T16:22:02.233Z,0.51
2023-03-06T16:24:35.310Z,0.50
2023-03-06T16:27:17.073Z,0.48
2023-03-06T16:29:49.871Z,0.46
2023-03-06T16:32:23.046Z,0.43
2023-03-06T16:34:55.835Z,0.41
2023-03-06T16:37:28.476Z,0.45
2023-03-06T16:40:01.333Z,0.44
2023-03-06T16:42:37.051Z,0.44
2023-03-06T16:45:11.419Z,0.43
2023-03-06T16:47:44.840Z,0.34
2023-03-06T16:50:24.650Z,0.40
2023-03-06T16:52:58.556Z,0.40
2023-03-06T16:55:33.213Z,0.38
2023-03-06T16:58:08.832Z,0.37
2023-03-06T17:00:42.006Z,0.27
2023-03-06T17:03:16.956Z,0.35
2023-03-06T17:05:50.234Z,0.31
2023-03-06T17:08:23.253Z,0.34
2023-03-06T17:10:56.098Z,0.32
2023-03-06T17:13:30.317Z,0.29
2023-03-06T17:16:03.227Z,0.26
2023-03-06T17:18:36.549Z,0.22
2023-03-06T17:24:02.542Z,0.14
2023-03-06T17:26:38.015Z,0.10
2023-03-06T17:29:15.091Z,0.03
2023-03-06T17:31:48.357Z,-0.09
2023-03-06T17:34:22.501Z,0.02
2023-03-06T17:36:56.840Z,-0.11
2023-03-06T17:39:33.017Z,-0.04
2023-03-06T17:42:06.819Z,-0.11
2023-03-06T17:44:41.149Z,-0.01
2023-03-06T17:47:13.954Z,0.02
2023-03-06T17:49:47.091Z,-0.02
2023-03-06T17:52:19.477Z,0.00
2023-03-06T17:54:52.471Z,0.02
2023-03-06T17:57:25.315Z,0.02
2023-03-06T17:59:59.333Z,0.03
2023-03-06T18:02:33.072Z,-0.05
2023-03-06T18:05:08.179Z,0.04
2023-03-06T18:07:41.166Z,-0.03
2023-03-06T18:10:14.172Z,0.13
2023-03-06T18:12:47.059Z,0.13
2023-03-06T18:15:20.965Z,0.10
2023-03-06T18:17:55.261Z,0.14
2023-03-06T18:20:31.113Z,0.17
2023-03-06T18:23:03.868Z,0.18
2023-03-06T18:25:37.029Z,0.17
2023-03-06T18:28:09.681Z,0.17
2023-03-06T18:30:44.468Z,0.17
2023-03-06T18:33:16.912Z,0.18
2023-03-06T18:35:49.980Z,0.20
2023-03-06T18:38:23.252Z,0.13
2023-03-06T18:40:55.775Z,0.24
2023-03-06T18:43:29.156Z,0.25
2023-03-06T18:46:04.890Z,0.23
2023-03-06T18:48:38.286Z,0.15
2023-03-06T18:51:12.132Z,0.21
2023-03-06T18:53:44.947Z,0.21
2023-03-06T18:56:20.056Z,0.21
2023-03-06T18:58:53.949Z,0.21
2023-03-06T19:01:31.228Z,0.14
2023-03-06T19:04:05.114Z,0.18
2023-03-06T19:06:38.436Z,0.15
2023-03-06T19:09:11.546Z,0.08
2023-03-06T19:11:47.081Z,0.05
2023-03-06T19:14:19.583Z,-0.02
2023-03-06T19:16:54.588Z,-0.11
2023-03-06T19:19:29.529Z,-0.24
2023-03-06T19:22:02.930Z,-0.16
2023-03-06T19:24:35.506Z,-0.19
2023-03-06T19:27:11.616Z,-0.22
2023-03-06T19:29:44.285Z,-0.24
2023-03-06T19:32:19.597Z,-0.38
2023-03-06T19:34:52.496Z,-0.32
2023-03-06T19:37:25.663Z,-0.26
2023-03-06T19:40:01.438Z,-0.28
2023-03-06T19:42:36.290Z,-0.21
2023-03-06T19:45:10.639Z,-0.19
2023-03-06T19:47:44.978Z,-0.19
2023-03-06T19:50:18.006Z,-0.32
2023-03-06T19:52:52.500Z,-0.16
2023-03-06T19:55:26.786Z,-0.15
2023-03-06T19:57:59.342Z,-0.12
2023-03-06T20:00:32.248Z,-0.14
2023-03-06T20:03:06.599Z,-0.11
2023-03-06T20:05:46.355Z,-0.09
2023-03-06T20:08:19.155Z,-0.10
2023-03-06T20:10:51.858Z,-0.09
2023-03-06T20:13:24.751Z,-0.09
2023-03-06T20:15:58.087Z,-0.07
2023-03-06T20:18:32.402Z,-0.08
2023-03-06T20:21:06.191Z,-0.06
2023-03-06T20:23:38.749Z,-0.14
2023-03-06T20:26:14.262Z,-0.07
2023-03-06T20:28:46.855Z,-0.05
2023-03-06T20:31:21.581Z,-0.06
2023-03-06T20:33:59.054Z,-0.04
2023-03-06T20:36:36.302Z,-0.03
2023-03-06T20:39:12.379Z,-0.04
2023-03-06T20:41:46.597Z,-0.05
2023-03-06T20:44:20.221Z,-0.07
2023-03-06T20:46:53.386Z,-0.08
2023-03-06T20:49:28.872Z,-0.08
2023-03-06T20:52:01.770Z,-0.15
2023-03-06T20:54:37.473Z,-0.21
2023-03-06T20:57:10.232Z,-0.13
2023-03-06T20:59:43.289Z,-0.14
2023-03-06T21:02:15.630Z,-0.30
2023-03-06T21:04:50.523Z,-0.12
2023-03-06T21:07:22.912Z,-0.12
2023-03-06T21:09:55.897Z,-0.15
2023-03-06T21:12:28.632Z,-0.16
2023-03-06T21:15:01.429Z,-0.20
2023-03-06T21:17:35.660Z,-0.21
2023-03-06T21:20:11.304Z,-0.35
2023-03-06T21:22:44.022Z,-0.24
2023-03-06T21:25:17.236Z,-0.26
2023-03-06T21:27:50.182Z,-0.25
2023-03-06T21:30:22.744Z,-0.25
2023-03-06T21:32:56.015Z,-0.24
2023-03-06T21:35:30.335Z,-0.24
2023-03-06T21:38:03.403Z,-0.23
2023-03-06T21:40:36.125Z,-0.39
2023-03-06T21:43:09.676Z,-0.29
2023-03-06T21:45:43.974Z,-0.28
2023-03-06T21:48:17.011Z,-0.31
2023-03-06T21:50:51.196Z,-0.32
2023-03-06T21:53:23.558Z,-0.33
2023-03-06T21:55:56.634Z,-0.33
2023-03-06T21:58:29.690Z,-0.34
2023-03-06T22:01:02.578Z,-0.46
2023-03-06T22:03:34.921Z,-0.36
2023-03-06T22:06:14.493Z,-0.36
2023-03-06T22:08:47.266Z,-0.38
2023-03-06T22:11:21.695Z,-0.39
2023-03-06T22:13:54.212Z,-0.39
2023-03-06T22:16:27.382Z,-0.44
2023-03-06T22:19:00.947Z,-0.43
2023-03-06T22:21:35.259Z,-0.43
2023-03-06T22:24:07.800Z,-0.51
2023-03-06T22:26:40.989Z,-0.46
2023-03-06T22:29:13.390Z,-0.49
2023-03-06T22:31:46.347Z,-0.52
2023-03-06T22:34:19.022Z,-0.53
2023-03-06T22:36:53.943Z,-0.55
2023-03-06T22:39:27.492Z,-0.62
2023-03-06T22:42:00.535Z,-0.72
2023-03-06T22:44:33.032Z,-0.60
2023-03-06T22:47:06.487Z,-0.61
2023-03-06T22:49:39.493Z,-0.68
2023-03-06T22:52:15.123Z,-0.72
2023-03-06T22:54:48.009Z,-0.78
2023-03-06T22:57:21.089Z,-0.83
2023-03-06T22:59:53.868Z,-0.87
2023-03-06T23:02:26.319Z,-0.91
2023-03-06T23:04:59.377Z,-0.95
2023-03-06T23:07:33.319Z,-0.95
2023-03-06T23:10:10.607Z,-0.98
2023-03-06T23:13:01.799Z,-1.04
2023-03-06T23:15:53.693Z,-0.99
2023-03-06T23:18:44.924Z,-0.96
2023-03-06T23:21:36.835Z,-0.95
2023-03-06T23:24:29.133Z,-0.99
2023-03-06T23:27:02.048Z,-0.91
2023-03-06T23:29:34.684Z,-0.91
2023-03-06T23:32:08.304Z,-0.88
2023-03-06T23:34:40.894Z,-0.91
2023-03-06T23:37:14.094Z,-0.90
2023-03-06T23:39:48.658Z,-0.88
2023-03-06T23:42:21.108Z,-0.89
2023-03-06T23:44:53.889Z,-0.90
2023-03-06T23:47:26.414Z,-0.92
2023-03-06T23:49:59.154Z,-0.90
2023-03-06T23:52:31.873Z,-0.90
2023-03-06T23:55:07.302Z,-0.88
2023-03-06T23:57:39.742Z,-0.87
